HOURLY OBS INDEX

024

Murray Valley

LOXTON RESEARCH CENTRE

Site: 024024
Alt: 30.1m
33km SSW of RENMARK


  Time     Wind        Temp  DP   Baro     Rain since   Rain past  Vis(m), Cloud(base in m), Weather
  local        km/h                         9am  last   hr   10m    
Mon 20:30    S 17/ 22  27.9  0.5  1014.7    0.0   0.0   0.0   0.0   ----- 
Mon 20:30    S 17/ 22  27.9  0.5  1014.7    0.0   0.0  ----   0.0   ----- 
Mon 21:00    S 13/ 17  26.5  1.4  1015.1    0.0   0.0   0.0   0.0   ----- 
Mon 21:30    S 13/ 20  25.6  1.3  1015.3    0.0   0.0   0.0   0.0   ----- 
Mon 22:00    S 11/ 17  24.6  1.1  1015.4    0.0   0.0   0.0   0.0   ----- 
Mon 22:30  SSW 17/ 24  24.2  1.0  1015.5    0.0   0.0   0.0   0.0   ----- 
Mon 23:00  SSW 19/ 26  22.8  8.5  1015.4    0.0   0.0   0.0   0.0   ----- 
Mon 23:30  SSW 15/ 24  21.6 10.0  1015.5    0.0   0.0   0.0   0.0   ----- 
Tue 00:00  SSW 19/ 24  21.1 10.5  1015.3    0.0   0.0   0.0   0.0   ----- 
Tue 00:30    S 15/ 20  20.4 10.2  1015.3    0.0   0.0   0.0   0.0   ----- 
Tue 01:00    S 15/ 20  19.9  9.3  1015.0    0.0   0.0   0.0   0.0   ----- 
Tue 01:30    S 13/ 19  19.5  8.1  1014.9    0.0   0.0   0.0   0.0   ----- 
Tue 01:30    S 13/ 19  19.5  8.1  1014.9    0.0   0.0  ----   0.0   ----- 

MURRAY BRIDGE (PALLAMANA AERODROME)

Site: 024584
Alt: 45.0m
7km NW of MURRAY BRIDGE


  Time     Wind        Temp  DP   Baro     Rain since   Rain past  Vis(m), Cloud(base in m), Weather
  local        km/h                         9am  last   hr   10m    
Mon 20:30   SW 30/ 39  17.5 11.8  1018.3    0.0   0.0   0.0   0.0   10000 
Mon 20:30   SW 30/ 39  17.5 11.8  1018.3    0.0   0.0  ----   0.0   10000 
Mon 21:00   SW 22/ 28  16.9 11.8  1018.7    0.0   0.0   0.0   0.0   10000 
Mon 21:30   SW 22/ 30  16.3 11.9  1018.8    0.0   0.0   0.0   0.0   10000 
Mon 22:00  WSW 24/ 32  15.8 12.1  1018.6    0.0   0.0   0.0   0.0   10000 
Mon 22:30  WSW 32/ 41  15.5 12.2  1018.3    0.0   0.0   0.0   0.0   10000 
Mon 23:00  WSW 24/ 33  15.2 12.5  1018.3    0.0   0.0   0.0   0.0   10000 
Mon 23:30   SW 20/ 26  15.0 12.4  1018.1    0.0   0.0   0.0   0.0   10000 
Tue 00:00   SW 22/ 28  14.7 12.3  1018.0    0.0   0.0   0.0   0.0   10000 
Tue 00:30  WSW 22/ 28  14.6 12.4  1017.8    0.0   0.0   0.0   0.0   10000 
Tue 01:00  WSW 24/ 30  14.6 12.2  1017.5    0.0   0.0   0.0   0.0   10000 
Tue 01:30  WSW 24/ 32  14.4 12.4  1017.3    0.0   0.0   0.0   0.0   10000 
Tue 01:30  WSW 24/ 32  14.4 12.4  1017.3    0.0   0.0  ----   0.0   10000 

RENMARK AERO

Site: 024048
Alt: 31.5m
7km WSW of RENMARK


  Time     Wind        Temp  DP   Baro     Rain since   Rain past  Vis(m), Cloud(base in m), Weather
  local        km/h                         9am  last   hr   10m    
Mon 20:30  SSW 13/ 17  28.4  1.0  1014.2    0.0   0.0   0.0   0.0   10000 
Mon 20:30  SSW 13/ 17  28.4  1.0  1014.2    0.0   0.0  ----   0.0   10000 
Mon 21:00    S 19/ 26  27.9  0.6  1014.4    0.0   0.0   0.0   0.0   10000 
Mon 21:30    S 17/ 24  27.0  1.4  1014.7    0.0   0.0   0.0   0.0   10000 
Mon 22:00    S 17/ 24  26.2  1.5  1014.9    0.0   0.0   0.0   0.0   10000 
Mon 22:30    S 17/ 24  25.7  1.1  1014.9    0.0   0.0   0.0   0.0   10000 
Mon 23:00    S 20/ 28  25.2  1.3  1014.9    0.0   0.0   0.0   0.0   10000 
Mon 23:30    S 19/ 28  23.6  6.4  1015.0    0.0   0.0   0.0   0.0   10000 
Tue 00:00    S 19/ 26  22.7  8.8  1014.9    0.0   0.0   0.0   0.0   10000 
Tue 00:30    S 19/ 28  21.6  9.5  1014.8    0.0   0.0   0.0   0.0   10000 
Tue 01:00    S 19/ 26  21.4  9.0  1014.7    0.0   0.0   0.0   0.0   10000 
Tue 01:30    S 20/ 32  21.6  6.7  1014.6    0.0   0.0   0.0   0.0   10000 
Tue 01:30    S 20/ 32  21.6  6.7  1014.6    0.0   0.0  ----   0.0   10000 

STRATHALBYN RACECOURSE

Site: 024580
Alt: 58.0m
39km NE of VICTOR HARBOR


  Time     Wind        Temp  DP   Baro     Rain since   Rain past  Vis(m), Cloud(base in m), Weather
  local        km/h                         9am  last   hr   10m    
Mon 20:30  SSW 20/ 26  16.3 11.5  1018.8    0.0   0.0   0.0   0.0   ----- 
Mon 20:30  SSW 20/ 26  16.3 11.5  1018.8    0.0   0.0  ----   0.0   ----- 
Mon 21:00  SSW 15/ 19  15.7 11.7  1019.0    0.0   0.0   0.0   0.0   ----- 
Mon 21:30  SSW 15/ 19  15.1 11.7  1019.1    0.0   0.0   0.0   0.0   ----- 
Mon 22:00   SW  9/ 13  14.6 11.6  1019.0    0.0   0.0   0.0   0.0   ----- 
Mon 22:30  WSW 11/ 15  14.5 11.8  1019.0    0.0   0.0   0.0   0.0   ----- 
Mon 23:00  WSW 11/ 15  14.4 11.9  1018.8    0.0   0.0   0.0   0.0   ----- 
Mon 23:30   SW 13/ 19  14.5 11.8  1018.4    0.0   0.0   0.0   0.0   ----- 
Tue 00:00   SW 13/ 19  14.5 11.8  1018.1    0.0   0.0   0.0   0.0   ----- 
Tue 00:30  WSW 11/ 17  14.5 11.8  1018.2    0.0   0.0   0.0   0.0   ----- 
Tue 01:00  WSW 13/ 15  14.2 11.5  1017.8    0.0   0.0   0.0   0.0   ----- 
Tue 01:30  WSW 13/ 15  14.4 11.9  1017.6    0.0   0.0   0.0   0.0   ----- 
Tue 01:30  WSW 13/ 15  14.4 11.9  1017.6    0.0   0.0  ----   0.0   -----